sensor_id;sensor_type;location;lat;lon;timestamp;P1;durP1;ratioP1;P2;durP2;ratioP2
31238;SDS011;17871;31.584;74.450;2023-07-16T00:02:23;40.30;;;9.63;;
31238;SDS011;17871;31.584;74.450;2023-07-16T00:04:52;19.75;;;9.00;;
31238;SDS011;17871;31.584;74.450;2023-07-16T00:07:21;14.20;;;7.50;;
31238;SDS011;17871;31.584;74.450;2023-07-16T00:09:50;23.33;;;8.10;;
31238;SDS011;17871;31.584;74.450;2023-07-16T00:12:19;23.65;;;6.60;;
31238;SDS011;17871;31.584;74.450;2023-07-16T00:14:49;14.60;;;8.00;;
31238;SDS011;17871;31.584;74.450;2023-07-16T00:17:19;9.70;;;6.35;;
31238;SDS011;17871;31.584;74.450;2023-07-16T00:19:48;12.65;;;5.75;;
31238;SDS011;17871;31.584;74.450;2023-07-16T00:22:17;16.33;;;6.00;;
31238;SDS011;17871;31.584;74.450;2023-07-16T00:24:46;12.77;;;5.82;;
31238;SDS011;17871;31.584;74.450;2023-07-16T00:27:16;9.68;;;5.93;;
31238;SDS011;17871;31.584;74.450;2023-07-16T00:29:45;16.65;;;6.90;;
31238;SDS011;17871;31.584;74.450;2023-07-16T00:32:15;14.75;;;7.35;;
31238;SDS011;17871;31.584;74.450;2023-07-16T00:34:43;10.50;;;6.07;;
31238;SDS011;17871;31.584;74.450;2023-07-16T00:37:13;10.98;;;6.28;;
31238;SDS011;17871;31.584;74.450;2023-07-16T00:39:41;37.90;;;16.98;;
31238;SDS011;17871;31.584;74.450;2023-07-16T00:42:11;16.88;;;6.13;;
31238;SDS011;17871;31.584;74.450;2023-07-16T00:44:40;17.02;;;5.90;;
31238;SDS011;17871;31.584;74.450;2023-07-16T00:47:09;14.60;;;6.35;;
31238;SDS011;17871;31.584;74.450;2023-07-16T00:49:38;13.65;;;6.90;;
31238;SDS011;17871;31.584;74.450;2023-07-16T00:52:11;10.48;;;5.45;;
31238;SDS011;17871;31.584;74.450;2023-07-16T00:54:44;12.38;;;7.03;;
31238;SDS011;17871;31.584;74.450;2023-07-16T00:57:13;10.15;;;6.63;;
31238;SDS011;17871;31.584;74.450;2023-07-16T00:59:43;11.55;;;6.18;;
31238;SDS011;17871;31.584;74.450;2023-07-16T01:02:12;16.08;;;6.47;;
31238;SDS011;17871;31.584;74.450;2023-07-16T01:04:41;13.52;;;6.03;;
31238;SDS011;17871;31.584;74.450;2023-07-16T01:07:11;15.93;;;6.88;;
31238;SDS011;17871;31.584;74.450;2023-07-16T01:09:42;14.30;;;7.40;;
31238;SDS011;17871;31.584;74.450;2023-07-16T01:12:13;16.65;;;6.63;;
31238;SDS011;17871;31.584;74.450;2023-07-16T01:14:42;14.75;;;6.53;;
31238;SDS011;17871;31.584;74.450;2023-07-16T01:17:12;11.77;;;6.53;;
31238;SDS011;17871;31.584;74.450;2023-07-16T01:19:41;17.63;;;7.68;;
31238;SDS011;17871;31.584;74.450;2023-07-16T01:30:08;19.95;;;10.55;;
31238;SDS011;17871;31.584;74.450;2023-07-16T01:35:08;22.42;;;9.95;;
31238;SDS011;17871;31.584;74.450;2023-07-16T01:37:38;22.50;;;10.68;;
31238;SDS011;17871;31.584;74.450;2023-07-16T01:40:09;18.33;;;9.63;;
31238;SDS011;17871;31.584;74.450;2023-07-16T01:42:39;18.48;;;9.70;;
31238;SDS011;17871;31.584;74.450;2023-07-16T01:45:09;21.55;;;9.20;;
31238;SDS011;17871;31.584;74.450;2023-07-16T01:50:23;13.20;;;7.45;;
31238;SDS011;17871;31.584;74.450;2023-07-16T01:52:52;18.65;;;8.88;;
31238;SDS011;17871;31.584;74.450;2023-07-16T01:55:24;27.10;;;8.77;;
31238;SDS011;17871;31.584;74.450;2023-07-16T01:57:55;23.83;;;8.85;;
31238;SDS011;17871;31.584;74.450;2023-07-16T02:00:24;16.42;;;8.93;;
31238;SDS011;17871;31.584;74.450;2023-07-16T02:02:54;25.52;;;11.55;;
31238;SDS011;17871;31.584;74.450;2023-07-16T02:05:23;27.98;;;10.15;;
31238;SDS011;17871;31.584;74.450;2023-07-16T02:07:52;34.63;;;12.00;;
31238;SDS011;17871;31.584;74.450;2023-07-16T02:10:21;29.42;;;12.95;;
31238;SDS011;17871;31.584;74.450;2023-07-16T02:12:50;16.85;;;9.98;;
31238;SDS011;17871;31.584;74.450;2023-07-16T02:15:19;17.63;;;9.50;;
31238;SDS011;17871;31.584;74.450;2023-07-16T02:17:48;25.70;;;12.13;;
31238;SDS011;17871;31.584;74.450;2023-07-16T02:20:18;25.98;;;12.68;;
31238;SDS011;17871;31.584;74.450;2023-07-16T02:22:47;24.45;;;13.15;;
31238;SDS011;17871;31.584;74.450;2023-07-16T02:25:16;40.22;;;19.58;;
31238;SDS011;17871;31.584;74.450;2023-07-16T02:27:47;44.15;;;23.33;;
31238;SDS011;17871;31.584;74.450;2023-07-16T02:30:16;43.25;;;23.77;;
31238;SDS011;17871;31.584;74.450;2023-07-16T02:32:45;42.38;;;22.10;;
31238;SDS011;17871;31.584;74.450;2023-07-16T02:35:14;40.03;;;21.98;;
31238;SDS011;17871;31.584;74.450;2023-07-16T02:37:44;33.47;;;19.27;;
31238;SDS011;17871;31.584;74.450;2023-07-16T02:40:13;34.55;;;17.88;;
31238;SDS011;17871;31.584;74.450;2023-07-16T02:42:42;30.80;;;16.15;;
31238;SDS011;17871;31.584;74.450;2023-07-16T02:45:12;27.58;;;15.63;;
31238;SDS011;17871;31.584;74.450;2023-07-16T02:47:41;21.73;;;12.88;;
31238;SDS011;17871;31.584;74.450;2023-07-16T02:50:10;21.02;;;13.00;;
31238;SDS011;17871;31.584;74.450;2023-07-16T02:52:39;21.90;;;12.07;;
31238;SDS011;17871;31.584;74.450;2023-07-16T02:55:08;35.13;;;13.05;;
31238;SDS011;17871;31.584;74.450;2023-07-16T02:57:37;28.27;;;13.18;;
31238;SDS011;17871;31.584;74.450;2023-07-16T03:00:07;38.28;;;13.85;;
31238;SDS011;17871;31.584;74.450;2023-07-16T03:02:37;31.83;;;14.40;;
31238;SDS011;17871;31.584;74.450;2023-07-16T03:05:06;23.52;;;12.55;;
31238;SDS011;17871;31.584;74.450;2023-07-16T03:07:35;22.63;;;11.68;;
31238;SDS011;17871;31.584;74.450;2023-07-16T03:10:04;36.67;;;18.63;;
31238;SDS011;17871;31.584;74.450;2023-07-16T03:12:33;41.08;;;21.33;;
31238;SDS011;17871;31.584;74.450;2023-07-16T03:15:02;29.65;;;13.98;;
31238;SDS011;17871;31.584;74.450;2023-07-16T03:17:32;26.85;;;11.18;;
31238;SDS011;17871;31.584;74.450;2023-07-16T03:20:02;27.42;;;10.60;;
31238;SDS011;17871;31.584;74.450;2023-07-16T03:22:34;22.90;;;9.15;;
31238;SDS011;17871;31.584;74.450;2023-07-16T03:25:03;22.40;;;9.70;;
31238;SDS011;17871;31.584;74.450;2023-07-16T03:27:34;13.40;;;9.43;;
31238;SDS011;17871;31.584;74.450;2023-07-16T03:30:03;24.55;;;10.40;;
31238;SDS011;17871;31.584;74.450;2023-07-16T03:32:32;29.00;;;11.82;;
31238;SDS011;17871;31.584;74.450;2023-07-16T03:35:17;20.15;;;10.00;;
31238;SDS011;17871;31.584;74.450;2023-07-16T03:37:52;23.42;;;10.25;;
31238;SDS011;17871;31.584;74.450;2023-07-16T03:40:26;20.80;;;10.98;;
31238;SDS011;17871;31.584;74.450;2023-07-16T03:42:55;20.60;;;12.30;;
31238;SDS011;17871;31.584;74.450;2023-07-16T03:45:24;25.60;;;14.07;;
31238;SDS011;17871;31.584;74.450;2023-07-16T03:47:53;33.13;;;16.98;;
31238;SDS011;17871;31.584;74.450;2023-07-16T03:50:22;37.97;;;17.70;;
31238;SDS011;17871;31.584;74.450;2023-07-16T03:52:55;27.63;;;17.67;;
31238;SDS011;17871;31.584;74.450;2023-07-16T03:55:24;29.77;;;17.30;;
31238;SDS011;17871;31.584;74.450;2023-07-16T03:57:54;34.00;;;17.55;;
31238;SDS011;17871;31.584;74.450;2023-07-16T04:00:24;45.17;;;20.58;;
31238;SDS011;17871;31.584;74.450;2023-07-16T04:02:53;36.85;;;18.48;;
31238;SDS011;17871;31.584;74.450;2023-07-16T04:05:22;37.30;;;18.80;;
31238;SDS011;17871;31.584;74.450;2023-07-16T04:07:51;31.13;;;18.77;;
31238;SDS011;17871;31.584;74.450;2023-07-16T04:10:20;40.78;;;20.58;;
31238;SDS011;17871;31.584;74.450;2023-07-16T04:12:49;36.88;;;17.08;;
31238;SDS011;17871;31.584;74.450;2023-07-16T04:15:18;37.53;;;20.90;;
31238;SDS011;17871;31.584;74.450;2023-07-16T04:17:47;37.10;;;19.15;;
31238;SDS011;17871;31.584;74.450;2023-07-16T04:20:16;36.75;;;19.23;;
31238;SDS011;17871;31.584;74.450;2023-07-16T04:22:45;37.38;;;20.90;;
31238;SDS011;17871;31.584;74.450;2023-07-16T04:25:14;43.30;;;23.08;;
31238;SDS011;17871;31.584;74.450;2023-07-16T04:27:44;39.42;;;23.23;;
31238;SDS011;17871;31.584;74.450;2023-07-16T04:30:13;46.78;;;23.75;;
31238;SDS011;17871;31.584;74.450;2023-07-16T04:32:42;46.58;;;23.02;;
31238;SDS011;17871;31.584;74.450;2023-07-16T04:35:11;42.17;;;24.10;;
31238;SDS011;17871;31.584;74.450;2023-07-16T04:37:40;48.95;;;23.25;;
31238;SDS011;17871;31.584;74.450;2023-07-16T04:40:10;42.00;;;22.40;;
31238;SDS011;17871;31.584;74.450;2023-07-16T04:42:39;41.90;;;23.73;;
31238;SDS011;17871;31.584;74.450;2023-07-16T04:45:08;44.85;;;24.30;;
31238;SDS011;17871;31.584;74.450;2023-07-16T04:47:37;43.47;;;22.77;;
31238;SDS011;17871;31.584;74.450;2023-07-16T04:50:06;43.00;;;23.73;;
31238;SDS011;17871;31.584;74.450;2023-07-16T04:52:38;40.00;;;23.38;;
31238;SDS011;17871;31.584;74.450;2023-07-16T04:55:07;41.78;;;21.55;;
31238;SDS011;17871;31.584;74.450;2023-07-16T04:57:36;46.92;;;23.20;;
31238;SDS011;17871;31.584;74.450;2023-07-16T05:00:06;43.53;;;22.73;;
31238;SDS011;17871;31.584;74.450;2023-07-16T05:02:36;44.95;;;26.17;;
31238;SDS011;17871;31.584;74.450;2023-07-16T05:05:05;50.45;;;25.02;;
31238;SDS011;17871;31.584;74.450;2023-07-16T05:07:34;45.58;;;24.20;;
31238;SDS011;17871;31.584;74.450;2023-07-16T05:10:04;46.20;;;24.38;;
31238;SDS011;17871;31.584;74.450;2023-07-16T05:12:33;45.00;;;24.02;;
31238;SDS011;17871;31.584;74.450;2023-07-16T05:15:02;55.05;;;24.05;;
31238;SDS011;17871;31.584;74.450;2023-07-16T05:17:31;38.85;;;22.05;;
31238;SDS011;17871;31.584;74.450;2023-07-16T05:20:02;37.08;;;19.05;;
31238;SDS011;17871;31.584;74.450;2023-07-16T05:22:32;35.47;;;18.67;;
31238;SDS011;17871;31.584;74.450;2023-07-16T05:25:02;40.45;;;19.40;;
31238;SDS011;17871;31.584;74.450;2023-07-16T05:27:31;40.40;;;21.85;;
31238;SDS011;17871;31.584;74.450;2023-07-16T05:30:00;42.40;;;20.92;;
31238;SDS011;17871;31.584;74.450;2023-07-16T05:32:31;46.95;;;25.13;;
31238;SDS011;17871;31.584;74.450;2023-07-16T05:35:00;48.95;;;27.50;;
31238;SDS011;17871;31.584;74.450;2023-07-16T05:37:30;53.75;;;26.90;;
31238;SDS011;17871;31.584;74.450;2023-07-16T05:39:58;49.25;;;26.67;;
31238;SDS011;17871;31.584;74.450;2023-07-16T05:42:28;48.63;;;27.40;;
31238;SDS011;17871;31.584;74.450;2023-07-16T05:44:57;48.28;;;25.98;;
31238;SDS011;17871;31.584;74.450;2023-07-16T05:47:28;51.47;;;26.03;;
31238;SDS011;17871;31.584;74.450;2023-07-16T05:49:58;48.55;;;25.70;;
31238;SDS011;17871;31.584;74.450;2023-07-16T05:52:27;47.33;;;23.70;;
31238;SDS011;17871;31.584;74.450;2023-07-16T05:54:56;44.45;;;24.85;;
31238;SDS011;17871;31.584;74.450;2023-07-16T05:57:25;50.35;;;23.92;;
31238;SDS011;17871;31.584;74.450;2023-07-16T05:59:54;45.53;;;23.15;;
31238;SDS011;17871;31.584;74.450;2023-07-16T06:02:24;47.08;;;24.08;;
31238;SDS011;17871;31.584;74.450;2023-07-16T06:04:53;54.70;;;24.85;;
31238;SDS011;17871;31.584;74.450;2023-07-16T06:07:22;51.63;;;22.23;;
31238;SDS011;17871;31.584;74.450;2023-07-16T06:09:51;48.40;;;21.42;;
31238;SDS011;17871;31.584;74.450;2023-07-16T06:12:20;40.80;;;21.30;;
31238;SDS011;17871;31.584;74.450;2023-07-16T06:14:49;42.55;;;21.50;;
31238;SDS011;17871;31.584;74.450;2023-07-16T06:17:18;42.88;;;21.52;;
31238;SDS011;17871;31.584;74.450;2023-07-16T06:19:47;40.42;;;22.98;;
31238;SDS011;17871;31.584;74.450;2023-07-16T06:22:18;46.33;;;22.67;;
31238;SDS011;17871;31.584;74.450;2023-07-16T06:24:47;49.63;;;23.70;;
31238;SDS011;17871;31.584;74.450;2023-07-16T06:27:16;45.90;;;23.58;;
31238;SDS011;17871;31.584;74.450;2023-07-16T06:29:45;50.67;;;23.52;;
31238;SDS011;17871;31.584;74.450;2023-07-16T06:32:14;46.00;;;24.10;;
31238;SDS011;17871;31.584;74.450;2023-07-16T06:34:43;49.78;;;25.42;;
31238;SDS011;17871;31.584;74.450;2023-07-16T06:37:12;53.60;;;25.63;;
31238;SDS011;17871;31.584;74.450;2023-07-16T06:39:41;47.85;;;26.00;;
31238;SDS011;17871;31.584;74.450;2023-07-16T06:42:12;45.03;;;23.90;;
31238;SDS011;17871;31.584;74.450;2023-07-16T06:44:42;48.58;;;24.95;;
31238;SDS011;17871;31.584;74.450;2023-07-16T06:47:12;42.47;;;21.55;;
31238;SDS011;17871;31.584;74.450;2023-07-16T06:49:41;38.08;;;19.35;;
31238;SDS011;17871;31.584;74.450;2023-07-16T06:52:23;37.13;;;19.80;;
31238;SDS011;17871;31.584;74.450;2023-07-16T06:54:55;45.78;;;21.00;;
31238;SDS011;17871;31.584;74.450;2023-07-16T06:57:24;43.58;;;20.95;;
31238;SDS011;17871;31.584;74.450;2023-07-16T06:59:53;47.53;;;22.30;;
31238;SDS011;17871;31.584;74.450;2023-07-16T07:02:22;45.70;;;22.27;;
31238;SDS011;17871;31.584;74.450;2023-07-16T07:04:52;41.20;;;20.58;;
31238;SDS011;17871;31.584;74.450;2023-07-16T07:07:22;46.55;;;20.58;;
31238;SDS011;17871;31.584;74.450;2023-07-16T07:09:51;38.20;;;20.38;;
31238;SDS011;17871;31.584;74.450;2023-07-16T07:12:20;37.83;;;21.98;;
31238;SDS011;17871;31.584;74.450;2023-07-16T07:14:50;41.80;;;22.70;;
31238;SDS011;17871;31.584;74.450;2023-07-16T07:17:19;52.85;;;24.38;;
31238;SDS011;17871;31.584;74.450;2023-07-16T07:19:48;43.08;;;24.17;;
31238;SDS011;17871;31.584;74.450;2023-07-16T07:22:17;53.30;;;23.95;;
31238;SDS011;17871;31.584;74.450;2023-07-16T07:24:49;44.92;;;24.13;;
31238;SDS011;17871;31.584;74.450;2023-07-16T07:27:18;45.95;;;23.70;;
31238;SDS011;17871;31.584;74.450;2023-07-16T07:29:49;50.78;;;25.35;;
31238;SDS011;17871;31.584;74.450;2023-07-16T07:32:20;60.63;;;28.67;;
31238;SDS011;17871;31.584;74.450;2023-07-16T07:34:50;68.43;;;31.45;;
31238;SDS011;17871;31.584;74.450;2023-07-16T07:37:19;53.53;;;27.73;;
31238;SDS011;17871;31.584;74.450;2023-07-16T07:39:51;53.22;;;25.33;;
31238;SDS011;17871;31.584;74.450;2023-07-16T07:42:21;46.03;;;24.05;;
31238;SDS011;17871;31.584;74.450;2023-07-16T07:44:53;46.13;;;22.58;;
31238;SDS011;17871;31.584;74.450;2023-07-16T07:47:22;40.95;;;23.00;;
31238;SDS011;17871;31.584;74.450;2023-07-16T07:49:58;40.35;;;23.05;;
31238;SDS011;17871;31.584;74.450;2023-07-16T07:52:27;46.35;;;23.45;;
31238;SDS011;17871;31.584;74.450;2023-07-16T07:54:56;39.83;;;22.85;;
31238;SDS011;17871;31.584;74.450;2023-07-16T07:57:25;43.88;;;22.75;;
31238;SDS011;17871;31.584;74.450;2023-07-16T07:59:54;42.40;;;21.92;;
31238;SDS011;17871;31.584;74.450;2023-07-16T08:02:25;41.00;;;23.15;;
31238;SDS011;17871;31.584;74.450;2023-07-16T08:04:55;44.67;;;22.77;;
31238;SDS011;17871;31.584;74.450;2023-07-16T08:07:25;41.08;;;23.17;;
31238;SDS011;17871;31.584;74.450;2023-07-16T08:09:54;35.60;;;21.02;;
31238;SDS011;17871;31.584;74.450;2023-07-16T08:12:23;43.55;;;22.90;;
31238;SDS011;17871;31.584;74.450;2023-07-16T08:14:52;45.78;;;24.48;;
31238;SDS011;17871;31.584;74.450;2023-07-16T08:17:21;44.33;;;23.23;;
31238;SDS011;17871;31.584;74.450;2023-07-16T08:22:22;46.28;;;23.77;;
31238;SDS011;17871;31.584;74.450;2023-07-16T08:24:52;48.08;;;24.02;;
31238;SDS011;17871;31.584;74.450;2023-07-16T08:27:21;41.28;;;24.15;;
31238;SDS011;17871;31.584;74.450;2023-07-16T08:29:50;41.33;;;24.50;;
31238;SDS011;17871;31.584;74.450;2023-07-16T08:32:20;54.03;;;25.05;;
31238;SDS011;17871;31.584;74.450;2023-07-16T08:34:50;44.40;;;23.58;;
31238;SDS011;17871;31.584;74.450;2023-07-16T08:37:21;47.50;;;23.98;;
31238;SDS011;17871;31.584;74.450;2023-07-16T08:39:52;48.60;;;25.05;;
31238;SDS011;17871;31.584;74.450;2023-07-16T08:44:52;46.85;;;22.52;;
31238;SDS011;17871;31.584;74.450;2023-07-16T08:47:22;46.05;;;25.00;;
31238;SDS011;17871;31.584;74.450;2023-07-16T08:49:54;47.33;;;23.20;;
31238;SDS011;17871;31.584;74.450;2023-07-16T08:52:24;41.17;;;23.00;;
31238;SDS011;17871;31.584;74.450;2023-07-16T08:54:56;37.45;;;20.63;;
31238;SDS011;17871;31.584;74.450;2023-07-16T08:57:25;40.45;;;19.77;;
31238;SDS011;17871;31.584;74.450;2023-07-16T08:59:55;33.53;;;18.65;;
31238;SDS011;17871;31.584;74.450;2023-07-16T09:02:24;43.40;;;19.63;;
31238;SDS011;17871;31.584;74.450;2023-07-16T09:04:55;38.58;;;20.75;;
31238;SDS011;17871;31.584;74.450;2023-07-16T09:07:24;36.42;;;20.75;;
31238;SDS011;17871;31.584;74.450;2023-07-16T09:09:56;39.67;;;20.83;;
31238;SDS011;17871;31.584;74.450;2023-07-16T09:12:28;40.08;;;20.02;;
31238;SDS011;17871;31.584;74.450;2023-07-16T09:14:57;42.80;;;19.60;;
31238;SDS011;17871;31.584;74.450;2023-07-16T09:17:27;51.83;;;24.90;;
31238;SDS011;17871;31.584;74.450;2023-07-16T09:19:56;36.20;;;20.05;;
31238;SDS011;17871;31.584;74.450;2023-07-16T09:22:25;39.90;;;21.30;;
31238;SDS011;17871;31.584;74.450;2023-07-16T09:24:53;37.38;;;20.17;;
31238;SDS011;17871;31.584;74.450;2023-07-16T09:27:29;42.63;;;20.67;;
31238;SDS011;17871;31.584;74.450;2023-07-16T09:29:59;43.22;;;21.45;;
31238;SDS011;17871;31.584;74.450;2023-07-16T09:32:38;44.72;;;21.50;;
31238;SDS011;17871;31.584;74.450;2023-07-16T09:35:13;38.30;;;20.67;;
31238;SDS011;17871;31.584;74.450;2023-07-16T09:37:46;37.72;;;19.77;;
31238;SDS011;17871;31.584;74.450;2023-07-16T09:40:15;35.13;;;18.50;;
31238;SDS011;17871;31.584;74.450;2023-07-16T09:42:44;38.58;;;19.95;;
31238;SDS011;17871;31.584;74.450;2023-07-16T09:45:22;39.72;;;21.48;;
31238;SDS011;17871;31.584;74.450;2023-07-16T09:47:51;39.72;;;21.42;;
31238;SDS011;17871;31.584;74.450;2023-07-16T09:50:23;38.08;;;21.23;;
31238;SDS011;17871;31.584;74.450;2023-07-16T09:52:56;33.50;;;20.15;;
31238;SDS011;17871;31.584;74.450;2023-07-16T09:55:26;35.85;;;20.27;;
31238;SDS011;17871;31.584;74.450;2023-07-16T09:57:56;34.38;;;19.92;;
31238;SDS011;17871;31.584;74.450;2023-07-16T10:00:28;39.80;;;19.50;;
31238;SDS011;17871;31.584;74.450;2023-07-16T10:03:17;36.25;;;19.67;;
31238;SDS011;17871;31.584;74.450;2023-07-16T10:05:47;42.35;;;21.85;;
31238;SDS011;17871;31.584;74.450;2023-07-16T10:08:18;41.50;;;21.58;;
31238;SDS011;17871;31.584;74.450;2023-07-16T10:10:54;36.67;;;20.38;;
31238;SDS011;17871;31.584;74.450;2023-07-16T10:13:26;45.03;;;21.13;;
31238;SDS011;17871;31.584;74.450;2023-07-16T10:15:58;41.88;;;21.40;;
31238;SDS011;17871;31.584;74.450;2023-07-16T10:18:31;52.70;;;24.90;;
31238;SDS011;17871;31.584;74.450;2023-07-16T10:21:03;35.45;;;18.77;;
31238;SDS011;17871;31.584;74.450;2023-07-16T10:23:39;27.02;;;17.25;;
31238;SDS011;17871;31.584;74.450;2023-07-16T10:26:14;34.38;;;17.63;;
31238;SDS011;17871;31.584;74.450;2023-07-16T10:28:46;27.55;;;16.15;;
31238;SDS011;17871;31.584;74.450;2023-07-16T10:31:25;31.63;;;15.90;;
31238;SDS011;17871;31.584;74.450;2023-07-16T10:34:01;32.42;;;19.60;;
31238;SDS011;17871;31.584;74.450;2023-07-16T10:36:37;33.78;;;18.00;;
31238;SDS011;17871;31.584;74.450;2023-07-16T10:39:07;33.97;;;18.10;;
31238;SDS011;17871;31.584;74.450;2023-07-16T10:41:39;30.45;;;16.00;;
31238;SDS011;17871;31.584;74.450;2023-07-16T10:44:08;29.90;;;15.77;;
31238;SDS011;17871;31.584;74.450;2023-07-16T10:46:38;38.75;;;19.30;;
31238;SDS011;17871;31.584;74.450;2023-07-16T10:49:09;42.53;;;19.08;;
31238;SDS011;17871;31.584;74.450;2023-07-16T10:51:38;31.77;;;18.38;;
31238;SDS011;17871;31.584;74.450;2023-07-16T10:54:07;30.27;;;18.90;;
31238;SDS011;17871;31.584;74.450;2023-07-16T10:56:36;30.25;;;17.70;;
31238;SDS011;17871;31.584;74.450;2023-07-16T10:59:09;30.40;;;17.02;;
31238;SDS011;17871;31.584;74.450;2023-07-16T11:01:39;30.98;;;17.83;;
31238;SDS011;17871;31.584;74.450;2023-07-16T11:04:08;33.63;;;18.10;;
31238;SDS011;17871;31.584;74.450;2023-07-16T11:06:37;31.60;;;17.38;;
31238;SDS011;17871;31.584;74.450;2023-07-16T11:09:09;30.98;;;17.10;;
31238;SDS011;17871;31.584;74.450;2023-07-16T11:11:38;35.78;;;19.35;;
31238;SDS011;17871;31.584;74.450;2023-07-16T11:14:08;35.60;;;20.52;;
31238;SDS011;17871;31.584;74.450;2023-07-16T11:16:37;34.80;;;18.90;;
31238;SDS011;17871;31.584;74.450;2023-07-16T11:19:07;35.95;;;18.70;;
31238;SDS011;17871;31.584;74.450;2023-07-16T11:21:36;39.22;;;18.92;;
31238;SDS011;17871;31.584;74.450;2023-07-16T11:24:23;38.20;;;20.83;;
31238;SDS011;17871;31.584;74.450;2023-07-16T11:26:55;40.72;;;20.70;;
31238;SDS011;17871;31.584;74.450;2023-07-16T11:29:33;35.85;;;18.70;;
31238;SDS011;17871;31.584;74.450;2023-07-16T11:32:07;27.60;;;16.67;;
31238;SDS011;17871;31.584;74.450;2023-07-16T11:34:37;45.20;;;19.88;;
31238;SDS011;17871;31.584;74.450;2023-07-16T11:37:11;30.48;;;19.55;;
31238;SDS011;17871;31.584;74.450;2023-07-16T11:39:40;36.35;;;21.70;;
31238;SDS011;17871;31.584;74.450;2023-07-16T11:42:11;40.83;;;22.88;;
31238;SDS011;17871;31.584;74.450;2023-07-16T11:44:39;31.90;;;20.17;;
31238;SDS011;17871;31.584;74.450;2023-07-16T11:47:09;41.35;;;23.13;;
31238;SDS011;17871;31.584;74.450;2023-07-16T11:49:38;38.60;;;21.63;;
31238;SDS011;17871;31.584;74.450;2023-07-16T11:52:07;36.60;;;22.45;;
31238;SDS011;17871;31.584;74.450;2023-07-16T11:54:38;42.65;;;22.58;;
31238;SDS011;17871;31.584;74.450;2023-07-16T11:57:07;32.83;;;20.67;;
31238;SDS011;17871;31.584;74.450;2023-07-16T11:59:36;39.63;;;20.88;;
31238;SDS011;17871;31.584;74.450;2023-07-16T12:02:06;39.15;;;21.98;;
31238;SDS011;17871;31.584;74.450;2023-07-16T12:04:36;45.50;;;24.30;;
31238;SDS011;17871;31.584;74.450;2023-07-16T12:07:06;48.33;;;27.52;;
31238;SDS011;17871;31.584;74.450;2023-07-16T12:09:35;40.80;;;23.95;;
31238;SDS011;17871;31.584;74.450;2023-07-16T12:12:05;40.15;;;21.20;;
31238;SDS011;17871;31.584;74.450;2023-07-16T12:14:34;39.58;;;22.17;;
31238;SDS011;17871;31.584;74.450;2023-07-16T12:17:07;43.30;;;23.98;;
31238;SDS011;17871;31.584;74.450;2023-07-16T12:19:37;35.35;;;22.95;;
31238;SDS011;17871;31.584;74.450;2023-07-16T12:22:06;51.00;;;23.35;;
31238;SDS011;17871;31.584;74.450;2023-07-16T12:24:35;48.53;;;24.50;;
31238;SDS011;17871;31.584;74.450;2023-07-16T12:27:04;42.17;;;24.10;;
31238;SDS011;17871;31.584;74.450;2023-07-16T12:29:34;42.42;;;22.38;;
31238;SDS011;17871;31.584;74.450;2023-07-16T12:32:03;46.70;;;24.73;;
31238;SDS011;17871;31.584;74.450;2023-07-16T12:34:35;44.65;;;23.70;;
31238;SDS011;17871;31.584;74.450;2023-07-16T12:37:04;55.17;;;25.27;;
31238;SDS011;17871;31.584;74.450;2023-07-16T12:39:34;45.42;;;23.88;;
31238;SDS011;17871;31.584;74.450;2023-07-16T12:42:03;40.50;;;22.88;;
31238;SDS011;17871;31.584;74.450;2023-07-16T12:44:33;42.30;;;23.20;;
31238;SDS011;17871;31.584;74.450;2023-07-16T12:47:02;52.30;;;23.85;;
31238;SDS011;17871;31.584;74.450;2023-07-16T12:49:33;51.13;;;24.23;;
31238;SDS011;17871;31.584;74.450;2023-07-16T12:52:02;44.22;;;23.10;;
31238;SDS011;17871;31.584;74.450;2023-07-16T12:54:31;45.10;;;23.63;;
31238;SDS011;17871;31.584;74.450;2023-07-16T12:57:00;43.03;;;22.38;;
31238;SDS011;17871;31.584;74.450;2023-07-16T12:59:30;39.47;;;21.92;;
31238;SDS011;17871;31.584;74.450;2023-07-16T13:01:59;45.17;;;24.42;;
31238;SDS011;17871;31.584;74.450;2023-07-16T13:04:28;44.78;;;23.17;;
31238;SDS011;17871;31.584;74.450;2023-07-16T13:06:57;37.88;;;23.33;;
31238;SDS011;17871;31.584;74.450;2023-07-16T13:09:27;39.70;;;22.58;;
31238;SDS011;17871;31.584;74.450;2023-07-16T13:11:55;46.65;;;23.20;;
31238;SDS011;17871;31.584;74.450;2023-07-16T13:14:25;38.67;;;21.98;;
31238;SDS011;17871;31.584;74.450;2023-07-16T13:16:54;38.63;;;22.75;;
31238;SDS011;17871;31.584;74.450;2023-07-16T13:19:24;41.72;;;22.63;;
31238;SDS011;17871;31.584;74.450;2023-07-16T13:21:53;50.08;;;25.27;;
31238;SDS011;17871;31.584;74.450;2023-07-16T13:24:22;47.85;;;25.27;;
31238;SDS011;17871;31.584;74.450;2023-07-16T13:26:53;48.53;;;24.65;;
31238;SDS011;17871;31.584;74.450;2023-07-16T13:29:23;48.97;;;24.15;;
31238;SDS011;17871;31.584;74.450;2023-07-16T13:31:52;44.78;;;24.08;;
31238;SDS011;17871;31.584;74.450;2023-07-16T13:34:20;52.45;;;23.30;;
31238;SDS011;17871;31.584;74.450;2023-07-16T13:36:50;45.08;;;22.40;;
31238;SDS011;17871;31.584;74.450;2023-07-16T13:39:19;43.17;;;22.27;;
31238;SDS011;17871;31.584;74.450;2023-07-16T13:41:48;42.25;;;21.20;;
31238;SDS011;17871;31.584;74.450;2023-07-16T13:44:17;42.00;;;22.35;;
31238;SDS011;17871;31.584;74.450;2023-07-16T13:46:46;45.28;;;23.05;;
31238;SDS011;17871;31.584;74.450;2023-07-16T13:49:15;43.65;;;23.85;;
31238;SDS011;17871;31.584;74.450;2023-07-16T13:51:44;44.63;;;25.33;;
31238;SDS011;17871;31.584;74.450;2023-07-16T13:54:13;47.22;;;24.20;;
31238;SDS011;17871;31.584;74.450;2023-07-16T13:56:44;46.30;;;24.13;;
31238;SDS011;17871;31.584;74.450;2023-07-16T13:59:13;56.08;;;25.45;;
31238;SDS011;17871;31.584;74.450;2023-07-16T14:01:45;55.28;;;25.92;;
31238;SDS011;17871;31.584;74.450;2023-07-16T14:04:15;56.08;;;28.17;;
31238;SDS011;17871;31.584;74.450;2023-07-16T14:06:44;58.83;;;30.85;;
31238;SDS011;17871;31.584;74.450;2023-07-16T14:09:13;63.58;;;29.58;;
31238;SDS011;17871;31.584;74.450;2023-07-16T14:11:42;54.45;;;29.23;;
31238;SDS011;17871;31.584;74.450;2023-07-16T14:14:12;57.38;;;30.23;;
31238;SDS011;17871;31.584;74.450;2023-07-16T14:16:41;61.33;;;28.65;;
31238;SDS011;17871;31.584;74.450;2023-07-16T14:19:13;61.15;;;29.40;;
31238;SDS011;17871;31.584;74.450;2023-07-16T14:21:42;64.30;;;30.70;;
31238;SDS011;17871;31.584;74.450;2023-07-16T14:24:11;60.60;;;27.73;;
31238;SDS011;17871;31.584;74.450;2023-07-16T14:26:40;51.33;;;26.83;;
31238;SDS011;17871;31.584;74.450;2023-07-16T14:29:10;52.78;;;27.83;;
31238;SDS011;17871;31.584;74.450;2023-07-16T14:31:39;50.33;;;28.98;;
31238;SDS011;17871;31.584;74.450;2023-07-16T14:34:08;56.88;;;29.48;;
31238;SDS011;17871;31.584;74.450;2023-07-16T14:36:40;59.20;;;28.75;;
31238;SDS011;17871;31.584;74.450;2023-07-16T14:39:10;62.80;;;29.70;;
31238;SDS011;17871;31.584;74.450;2023-07-16T14:41:39;54.40;;;28.42;;
31238;SDS011;17871;31.584;74.450;2023-07-16T14:44:08;45.47;;;25.08;;
31238;SDS011;17871;31.584;74.450;2023-07-16T14:46:37;42.20;;;25.55;;